Time;durP1;ratioP1;P1;durP2;ratioP2;P2;SDS_P1;SDS_P2;PMS_P1;PMS_P2;Temp;Humidity;BMP_temperature;BMP_pressure;BME280_temperature;BME280_humidity;BME280_pressure;Samples;Min_cycle;Max_cycle;Signal;HPM_P1;HPM_P2
2022/01/19 00:00:36;;;;;;;44.22;15.55;;;6.00;99.90;;;;;;5055433;28;20470;-63
2022/01/19 00:03:02;;;;;;;48.83;15.45;;;6.00;99.90;;;;;;5055312;28;20083;-63
2022/01/19 00:05:27;;;;;;;41.70;14.32;;;5.90;99.90;;;;;;5054939;28;20017;-63
2022/01/19 00:07:53;;;;;;;36.60;15.48;;;5.90;99.90;;;;;;5054603;28;20075;-63
2022/01/19 00:10:26;;;;;;;39.95;16.33;;;5.90;99.90;;;;;;5054709;28;20053;-63
2022/01/19 00:12:54;;;;;;;44.80;15.77;;;5.90;99.90;;;;;;5054443;28;20032;-62
2022/01/19 00:15:20;;;;;;;36.58;14.90;;;6.00;99.90;;;;;;5054064;28;20029;-62
2022/01/19 00:17:45;;;;;;;47.45;16.75;;;6.00;99.90;;;;;;5054252;28;20027;-63
2022/01/19 00:20:11;;;;;;;48.17;15.35;;;6.00;99.90;;;;;;5036384;28;20500;-61
2022/01/19 00:22:37;;;;;;;36.60;14.88;;;6.00;99.90;;;;;;5054123;28;20092;-62
2022/01/19 00:25:05;;;;;;;47.45;15.77;;;6.00;99.90;;;;;;5055032;28;20432;-63
2022/01/19 00:27:30;;;;;;;46.80;16.42;;;5.90;99.90;;;;;;5058344;28;20545;-63
2022/01/19 00:29:56;;;;;;;43.03;14.73;;;5.90;99.90;;;;;;5059932;28;20048;-63
2022/01/19 00:32:24;;;;;;;54.42;16.17;;;5.90;99.90;;;;;;5042075;28;20029;-63
2022/01/19 00:34:49;;;;;;;46.85;16.08;;;5.90;99.90;;;;;;5060273;28;20048;-64
2022/01/19 00:37:15;;;;;;;41.30;15.27;;;5.90;99.90;;;;;;5058152;28;20033;-64
2022/01/19 00:39:40;;;;;;;50.28;16.52;;;5.90;99.90;;;;;;5055794;28;20025;-63
2022/01/19 00:42:06;;;;;;;48.40;15.07;;;5.90;99.90;;;;;;5054108;28;20029;-63
2022/01/19 00:44:32;;;;;;;43.38;15.90;;;5.90;99.90;;;;;;5035887;28;20029;-62
2022/01/19 00:46:57;;;;;;;40.15;14.52;;;5.90;99.90;;;;;;5055006;28;20366;-63
2022/01/19 00:49:23;;;;;;;44.10;14.88;;;6.00;99.90;;;;;;5036887;28;20459;-63
2022/01/19 00:51:48;;;;;;;52.35;16.02;;;6.00;99.90;;;;;;5053925;28;20021;-64
2022/01/19 00:54:14;;;;;;;51.10;17.60;;;6.00;99.90;;;;;;5053931;28;20029;-63
2022/01/19 00:56:40;;;;;;;46.75;16.65;;;6.00;99.90;;;;;;5054680;28;20029;-63
2022/01/19 00:59:05;;;;;;;43.97;16.75;;;6.10;99.90;;;;;;5054332;28;20555;-64
2022/01/19 01:01:31;;;;;;;46.72;17.13;;;6.00;99.90;;;;;;5054254;28;20098;-63
2022/01/19 01:03:57;;;;;;;60.45;19.45;;;6.00;99.90;;;;;;5053619;28;20025;-63
2022/01/19 01:06:22;;;;;;;56.33;18.77;;;6.00;99.90;;;;;;5053924;28;20023;-64
2022/01/19 01:08:48;;;;;;;56.58;19.50;;;5.90;99.90;;;;;;5053264;28;20025;-63
2022/01/19 01:11:14;;;;;;;49.75;18.25;;;5.90;99.90;;;;;;5053512;28;20062;-64
2022/01/19 01:16:34;;;;;;;54.47;21.60;;;5.90;99.90;;;;;;5053674;28;20112;-63
2022/01/19 01:19:02;;;;;;;57.50;20.88;;;5.80;99.90;;;;;;5053258;28;20032;-64
2022/01/19 01:21:27;;;;;;;49.47;20.10;;;5.90;99.90;;;;;;5052833;28;20056;-63
2022/01/19 01:23:53;;;;;;;50.95;19.90;;;5.90;99.90;;;;;;5052302;28;20486;-63
2022/01/19 01:26:18;;;;;;;43.72;17.80;;;5.90;99.90;;;;;;5053053;28;20432;-64
2022/01/19 01:28:44;;;;;;;50.33;19.25;;;6.00;99.90;;;;;;5053053;28;20032;-62
2022/01/19 01:31:09;;;;;;;53.90;19.65;;;6.00;99.90;;;;;;5058293;28;20102;-64
2022/01/19 01:33:36;;;;;;;52.20;19.77;;;5.90;99.90;;;;;;5058840;28;20040;-64
2022/01/19 01:36:03;;;;;;;50.28;18.50;;;6.00;99.90;;;;;;5059162;28;20025;-63
2022/01/19 01:38:29;;;;;;;46.60;19.13;;;6.00;99.90;;;;;;5041014;28;20025;-62
2022/01/19 01:40:54;;;;;;;48.63;17.85;;;6.00;99.90;;;;;;5058933;28;20103;-63
2022/01/19 01:43:20;;;;;;;47.40;17.73;;;6.00;99.90;;;;;;5058502;28;20502;-64
2022/01/19 01:45:49;;;;;;;49.00;18.23;;;6.00;99.90;;;;;;5058713;28;20032;-62
2022/01/19 01:48:18;;;;;;;50.50;18.15;;;6.10;99.90;;;;;;5058623;28;20437;-63
2022/01/19 01:53:30;;;;;;;49.47;17.92;;;6.00;99.90;;;;;;5058811;28;20091;-64
2022/01/19 01:56:13;;;;;;;44.65;16.55;;;6.00;99.90;;;;;;5059645;28;20378;-64
2022/01/19 01:58:45;;;;;;;44.92;15.88;;;6.00;99.90;;;;;;5059045;28;20052;-64
2022/01/19 02:01:11;;;;;;;55.78;16.77;;;5.90;99.90;;;;;;5059267;28;20025;-64
2022/01/19 02:03:39;;;;;;;43.10;17.15;;;5.90;99.90;;;;;;5059266;28;20021;-64
2022/01/19 02:08:47;;;;;;;47.47;16.08;;;6.00;99.90;;;;;;5059184;28;20363;-63
2022/01/19 02:16:41;;;;;;;45.67;17.75;;;6.00;99.90;;;;;;5058462;28;20032;-64
2022/01/19 02:22:00;;;;;;;48.03;17.20;;;6.10;99.90;;;;;;5059807;28;20094;-64
2022/01/19 02:24:32;;;;;;;56.03;18.88;;;6.10;99.90;;;;;;5059432;28;20025;-63
2022/01/19 02:40:22;;;;;;;51.80;18.05;;;5.90;99.90;;;;;;5059055;28;20033;-62
2022/01/19 02:50:39;;;;;;;47.17;17.40;;;5.90;99.90;;;;;;5057168;28;20040;-63
2022/01/19 02:53:05;;;;;;;48.88;18.50;;;5.90;99.90;;;;;;5056471;28;20037;-62
2022/01/19 02:55:33;;;;;;;46.78;17.73;;;5.90;99.90;;;;;;5056286;28;20033;-63
2022/01/19 02:57:59;;;;;;;52.95;18.98;;;5.90;99.90;;;;;;5056498;28;20036;-62
2022/01/19 03:06:32;;;;;;;46.42;17.38;;;5.80;99.90;;;;;;5056317;28;20406;-63
2022/01/19 03:08:46;;;;;;;43.05;16.50;;;5.80;99.90;;;;;;5055567;28;20028;-63
2022/01/19 03:11:15;;;;;;;49.45;17.80;;;5.80;99.90;;;;;;5056067;28;20138;-63
2022/01/19 03:13:40;;;;;;;47.72;17.60;;;5.80;99.90;;;;;;5055373;28;20532;-62
2022/01/19 03:16:06;;;;;;;46.25;14.75;;;5.70;99.90;;;;;;5055618;28;20025;-63
2022/01/19 03:18:32;;;;;;;39.28;15.43;;;5.70;99.90;;;;;;5055738;28;20029;-62
2022/01/19 03:20:57;;;;;;;47.70;15.50;;;5.70;99.90;;;;;;5056161;28;20037;-63
2022/01/19 03:23:23;;;;;;;44.90;15.40;;;5.70;99.90;;;;;;5055570;28;20119;-63
2022/01/19 03:25:50;;;;;;;39.55;14.93;;;5.70;99.90;;;;;;5055325;28;20025;-63
2022/01/19 03:28:16;;;;;;;43.40;14.50;;;5.70;99.90;;;;;;5054851;28;20108;-62
2022/01/19 03:30:43;;;;;;;42.03;14.80;;;5.70;99.90;;;;;;5037266;28;20099;-62
2022/01/19 03:33:09;;;;;;;43.45;14.82;;;5.60;99.90;;;;;;5037071;28;20036;-62
2022/01/19 03:35:35;;;;;;;35.13;14.27;;;5.70;99.90;;;;;;5054827;28;20025;-62
2022/01/19 03:38:01;;;;;;;37.90;14.63;;;5.60;99.90;;;;;;5055024;28;20385;-62
2022/01/19 03:40:26;;;;;;;49.03;15.75;;;5.60;99.90;;;;;;5055221;28;20025;-63
2022/01/19 03:42:52;;;;;;;34.72;14.45;;;5.50;99.90;;;;;;5054891;28;20025;-63
2022/01/19 03:45:18;;;;;;;45.40;16.98;;;5.50;99.90;;;;;;5054942;28;20108;-63
2022/01/19 03:48:10;;;;;;;45.03;16.42;;;5.40;99.90;;;;;;5036681;28;20023;-63
2022/01/19 03:50:35;;;;;;;;;;;5.30;99.90;;;;;;5037093;28;20027;-64
2022/01/19 03:53:01;;;;;;;51.75;15.77;;;5.30;99.90;;;;;;5054067;28;19995;-63
2022/01/19 03:55:27;;;;;;;46.88;16.08;;;5.20;99.90;;;;;;5054634;28;20107;-63
2022/01/19 03:57:53;;;;;;;46.03;16.33;;;5.20;99.90;;;;;;5036684;28;20033;-63
2022/01/19 04:00:20;;;;;;;40.53;16.95;;;5.20;99.90;;;;;;5054586;28;20021;-63
2022/01/19 04:02:47;;;;;;;45.78;16.52;;;5.10;99.90;;;;;;5054271;28;20037;-63
2022/01/19 04:05:22;;;;;;;48.75;16.83;;;5.10;99.90;;;;;;5054462;28;20394;-63
2022/01/19 04:07:48;;;;;;;40.67;16.65;;;5.10;99.90;;;;;;5036292;28;20036;-63
2022/01/19 04:10:14;;;;;;;52.08;16.20;;;5.10;99.90;;;;;;5054261;28;20017;-63
2022/01/19 04:12:47;;;;;;;47.38;18.30;;;5.00;99.90;;;;;;5054030;28;20033;-63
2022/01/19 04:15:15;;;;;;;39.72;15.55;;;5.00;99.90;;;;;;5053923;28;20029;-63
2022/01/19 04:17:47;;;;;;;62.70;18.67;;;5.00;99.90;;;;;;5053873;28;20163;-63
2022/01/19 04:20:13;;;;;;;52.05;18.65;;;5.00;99.90;;;;;;5054088;28;20037;-63
2022/01/19 04:22:39;;;;;;;57.35;19.02;;;4.90;99.90;;;;;;5054095;28;20378;-63
2022/01/19 04:25:05;;;;;;;50.88;16.83;;;4.90;99.90;;;;;;5053871;28;20036;-63
2022/01/19 04:27:32;;;;;;;55.10;19.80;;;4.90;99.90;;;;;;5054314;28;20027;-63
2022/01/19 04:30:06;;;;;;;55.53;19.20;;;4.80;99.90;;;;;;5054046;28;20029;-63
2022/01/19 04:32:41;;;;;;;51.78;19.85;;;4.80;99.90;;;;;;5053996;28;20048;-63
2022/01/19 04:35:08;;;;;;;50.17;19.60;;;4.80;99.90;;;;;;5054179;28;20025;-63
2022/01/19 04:48:28;;;;;;;50.63;20.60;;;4.70;99.90;;;;;;5053587;28;20488;-63
2022/01/19 05:04:30;;;;;;;60.53;19.90;;;4.60;99.90;;;;;;5052670;28;20021;-63
2022/01/19 05:07:16;;;;;;;61.90;21.90;;;4.50;99.90;;;;;;5053472;28;20060;-63
2022/01/19 05:09:58;;;;;;;58.50;22.15;;;4.50;99.90;;;;;;5053067;28;20079;-63
2022/01/19 05:15:09;;;;;;;64.50;21.90;;;4.50;99.90;;;;;;5053452;28;20155;-63
2022/01/19 05:17:36;;;;;;;58.95;21.95;;;4.40;99.90;;;;;;5053543;28;20025;-63
2022/01/19 05:20:06;;;;;;;57.55;21.58;;;4.30;99.90;;;;;;5070724;22;20052;-59
2022/01/19 05:22:32;;;;;;;53.05;22.25;;;4.30;99.90;;;;;;5072991;28;20032;-59
2022/01/19 05:24:58;;;;;;;53.13;20.90;;;4.30;99.90;;;;;;5073115;28;20037;-60
2022/01/19 05:27:23;;;;;;;57.40;20.05;;;4.20;99.90;;;;;;5072972;28;20024;-59
2022/01/19 05:29:50;;;;;;;71.05;21.98;;;4.20;99.90;;;;;;5073187;28;20063;-61
2022/01/19 05:32:16;;;;;;;68.43;23.15;;;4.20;99.90;;;;;;5072950;28;20031;-60
2022/01/19 05:34:41;;;;;;;61.28;22.85;;;4.20;99.90;;;;;;5073096;28;20029;-60
2022/01/19 05:37:07;;;;;;;58.13;21.73;;;4.20;99.90;;;;;;5073433;28;20025;-60
2022/01/19 05:39:32;;;;;;;56.45;22.73;;;4.20;99.90;;;;;;5073368;28;20031;-59
2022/01/19 05:41:58;;;;;;;70.32;23.38;;;4.20;99.90;;;;;;5073304;28;20028;-60
2022/01/19 05:44:24;;;;;;;58.05;21.38;;;4.10;99.90;;;;;;5072914;28;20032;-60
2022/01/19 05:46:49;;;;;;;64.18;22.23;;;4.00;99.90;;;;;;5073219;28;20043;-60
2022/01/19 05:49:15;;;;;;;62.58;23.20;;;4.00;99.90;;;;;;5073509;28;20496;-59
2022/01/19 05:51:41;;;;;;;64.95;23.30;;;4.00;99.90;;;;;;5073519;28;20124;-60
2022/01/19 05:54:06;;;;;;;70.38;22.30;;;4.00;99.90;;;;;;5073239;28;20035;-60
2022/01/19 05:56:32;;;;;;;57.60;21.95;;;4.00;99.90;;;;;;5072929;28;20111;-61
2022/01/19 05:58:58;;;;;;;71.47;23.25;;;4.10;99.90;;;;;;5072880;28;20489;-60
2022/01/19 06:01:23;;;;;;;61.17;23.73;;;4.20;99.90;;;;;;5072739;28;20511;-60
2022/01/19 06:03:51;;;;;;;60.58;22.05;;;4.20;99.90;;;;;;5072463;28;20563;-61
2022/01/19 06:06:17;;;;;;;59.70;23.20;;;4.20;99.90;;;;;;5072870;28;20025;-60
2022/01/19 06:08:44;;;;;;;70.10;22.80;;;4.30;99.90;;;;;;5072936;28;20024;-61
2022/01/19 06:11:11;;;;;;;56.25;22.98;;;4.30;99.90;;;;;;5072547;28;20389;-60
2022/01/19 06:13:37;;;;;;;67.00;23.67;;;4.30;99.90;;;;;;5072484;28;20033;-60
2022/01/19 06:16:03;;;;;;;71.63;23.20;;;4.30;99.90;;;;;;5074475;28;20035;-61
2022/01/19 06:18:29;;;;;;;60.42;22.38;;;4.30;99.90;;;;;;5075755;28;20025;-61
2022/01/19 06:20:55;;;;;;;62.53;23.52;;;4.30;99.90;;;;;;5076259;28;20037;-61
2022/01/19 06:23:21;;;;;;;60.53;21.00;;;4.30;99.90;;;;;;5076216;28;20042;-61
2022/01/19 06:25:46;;;;;;;60.28;23.38;;;4.30;99.90;;;;;;5076100;28;20024;-60
2022/01/19 06:28:12;;;;;;;62.65;22.85;;;4.20;99.90;;;;;;5076072;28;20055;-61
2022/01/19 06:30:38;;;;;;;59.15;23.15;;;4.30;99.90;;;;;;5076036;28;20103;-61
2022/01/19 06:33:04;;;;;;;66.45;22.70;;;4.20;99.90;;;;;;5076076;28;20032;-61
2022/01/19 06:35:30;;;;;;;61.03;22.85;;;4.20;99.90;;;;;;5075610;28;20055;-60
2022/01/19 06:37:55;;;;;;;65.10;24.50;;;4.10;99.90;;;;;;5076447;28;20028;-61
2022/01/19 06:40:25;;;;;;;60.55;23.08;;;4.10;99.90;;;;;;5058225;28;20028;-60
2022/01/19 06:42:52;;;;;;;62.03;23.50;;;4.20;99.90;;;;;;5076145;28;20060;-60
2022/01/19 06:45:18;;;;;;;60.15;22.85;;;4.10;99.90;;;;;;5076174;28;20016;-60
2022/01/19 06:47:44;;;;;;;64.20;24.35;;;4.00;99.90;;;;;;5075771;28;20432;-61
2022/01/19 06:50:12;;;;;;;67.70;25.60;;;4.00;99.90;;;;;;5075972;28;20129;-61
2022/01/19 06:52:38;;;;;;;57.15;22.88;;;3.90;99.90;;;;;;5062598;28;20067;-61
2022/01/19 06:55:07;;;;;;;67.57;24.23;;;4.00;99.90;;;;;;5075428;28;20051;-60
2022/01/19 06:57:33;;;;;;;63.42;25.25;;;3.90;99.90;;;;;;5076018;28;20481;-60
2022/01/19 06:59:59;;;;;;;64.38;24.55;;;3.90;99.90;;;;;;5074337;28;20043;-60
2022/01/19 07:02:24;;;;;;;63.95;24.08;;;3.80;99.90;;;;;;5074178;28;20025;-60
2022/01/19 07:04:50;;;;;;;71.47;25.20;;;3.80;99.90;;;;;;5074370;28;20481;-60
2022/01/19 07:07:17;;;;;;;65.70;25.50;;;3.70;99.90;;;;;;5074134;28;20485;-61
2022/01/19 07:09:44;;;;;;;68.78;26.67;;;3.70;99.90;;;;;;5074803;28;20457;-60
2022/01/19 07:12:10;;;;;;;74.50;25.23;;;3.60;99.90;;;;;;5075214;28;20024;-60
2022/01/19 07:14:35;;;;;;;70.25;26.52;;;3.60;99.90;;;;;;5075704;28;20024;-58
2022/01/19 07:17:01;;;;;;;76.88;29.73;;;3.60;99.90;;;;;;5076640;28;20074;-59
2022/01/19 07:19:27;;;;;;;72.15;27.58;;;3.70;99.90;;;;;;5075325;28;20048;-60
2022/01/19 07:21:52;;;;;;;86.28;31.17;;;3.80;99.90;;;;;;5077304;28;20396;-60
2022/01/19 07:24:18;;;;;;;84.07;29.73;;;3.90;99.90;;;;;;5076165;28;20025;-59
2022/01/19 07:26:43;;;;;;;79.78;28.48;;;3.90;99.90;;;;;;5076991;28;20062;-60
2022/01/19 07:29:09;;;;;;;78.20;28.98;;;4.00;99.90;;;;;;5076083;28;20115;-61
2022/01/19 07:31:34;;;;;;;79.00;29.77;;;4.00;99.90;;;;;;5076430;28;20016;-60
2022/01/19 07:34:00;;;;;;;82.00;31.10;;;4.10;99.90;;;;;;5075737;28;20410;-60
2022/01/19 07:36:26;;;;;;;75.53;28.95;;;4.00;99.90;;;;;;5075758;28;20055;-60
2022/01/19 07:38:51;;;;;;;77.47;29.38;;;4.10;99.90;;;;;;5076327;28;20035;-61
2022/01/19 07:41:17;;;;;;;79.68;31.02;;;4.10;99.90;;;;;;5076103;28;20032;-61
2022/01/19 07:43:43;;;;;;;81.32;30.17;;;4.10;99.90;;;;;;5076039;28;20025;-60
2022/01/19 07:46:09;;;;;;;83.65;31.23;;;4.20;99.90;;;;;;5076164;28;20025;-61
2022/01/19 07:48:35;;;;;;;74.35;29.08;;;4.20;99.90;;;;;;5076171;28;20063;-60
2022/01/19 07:51:00;;;;;;;74.28;29.13;;;4.30;99.90;;;;;;5076208;28;20029;-60
2022/01/19 07:53:26;;;;;;;77.85;30.70;;;4.30;99.90;;;;;;5075918;28;20389;-60
2022/01/19 07:55:51;;;;;;;84.28;31.60;;;4.30;99.90;;;;;;5075326;28;20021;-60
2022/01/19 07:58:17;;;;;;;85.97;30.70;;;4.30;99.90;;;;;;5074950;28;20040;-59
2022/01/19 08:00:42;;;;;;;81.20;27.45;;;4.40;99.90;;;;;;5074498;28;20043;-60
2022/01/19 08:03:11;;;;;;;90.18;32.35;;;4.30;99.90;;;;;;5074849;28;20032;-61
2022/01/19 08:05:37;;;;;;;81.18;31.08;;;4.30;99.90;;;;;;5056571;28;20027;-60
2022/01/19 08:08:03;;;;;;;82.63;30.92;;;4.30;99.90;;;;;;5073132;28;20021;-60
2022/01/19 08:10:29;;;;;;;88.07;31.33;;;4.30;99.90;;;;;;5074682;28;20028;-59
2022/01/19 08:12:56;;;;;;;82.00;30.70;;;4.40;99.90;;;;;;5074250;28;20067;-60
2022/01/19 08:15:22;;;;;;;74.43;30.70;;;4.40;99.90;;;;;;5074539;28;20063;-60
2022/01/19 08:17:47;;;;;;;71.22;31.10;;;4.40;99.90;;;;;;5074348;28;20434;-61
2022/01/19 08:20:13;;;;;;;88.40;33.42;;;4.40;99.90;;;;;;5074271;28;20386;-60
2022/01/19 08:22:39;;;;;;;89.05;32.67;;;4.40;99.90;;;;;;5073928;28;20043;-61
2022/01/19 08:25:05;;;;;;;75.43;32.40;;;4.40;99.90;;;;;;5064562;28;20060;-59
2022/01/19 08:27:30;;;;;;;79.40;32.13;;;4.40;99.90;;;;;;5056528;28;20544;-61
2022/01/19 08:29:57;;;;;;;87.25;31.30;;;4.40;99.90;;;;;;5067766;28;20021;-61
2022/01/19 08:32:23;;;;;;;87.45;32.83;;;4.30;99.90;;;;;;5063444;28;20355;-61
2022/01/19 08:34:49;;;;;;;80.30;31.55;;;4.40;99.90;;;;;;5060147;28;20032;-60
2022/01/19 08:37:15;;;;;;;94.05;32.65;;;4.40;99.90;;;;;;5067889;28;20025;-61
2022/01/19 08:39:44;;;;;;;78.85;33.47;;;4.40;99.90;;;;;;5061492;28;20025;-60
2022/01/19 08:42:10;;;;;;;86.03;32.30;;;4.40;99.90;;;;;;5065546;28;20040;-59
2022/01/19 08:44:37;;;;;;;80.43;32.85;;;4.40;99.90;;;;;;5064807;28;20024;-60
2022/01/19 08:47:03;;;;;;;79.10;31.30;;;4.40;99.90;;;;;;5065444;28;20104;-61
2022/01/19 08:49:29;;;;;;;83.93;33.08;;;4.40;99.90;;;;;;5063933;28;20024;-60
2022/01/19 08:51:54;;;;;;;85.55;32.05;;;4.40;99.90;;;;;;5065400;28;20013;-60
2022/01/19 08:54:20;;;;;;;88.45;32.42;;;4.40;99.90;;;;;;5064591;28;20099;-59
2022/01/19 08:56:45;;;;;;;78.18;31.42;;;4.40;99.90;;;;;;5047665;28;20039;-61
2022/01/19 08:59:11;;;;;;;81.03;30.67;;;4.40;99.90;;;;;;5065694;28;20028;-60
2022/01/19 09:01:37;;;;;;;78.93;29.95;;;4.40;99.90;;;;;;5064269;28;20024;-58
2022/01/19 09:04:02;;;;;;;85.63;31.48;;;4.40;99.90;;;;;;5063252;28;20543;-60
2022/01/19 09:06:28;;;;;;;75.65;31.27;;;4.40;99.90;;;;;;5064124;28;20096;-59
2022/01/19 09:08:53;;;;;;;83.80;31.60;;;4.40;99.90;;;;;;5065327;28;20056;-60
2022/01/19 09:11:19;;;;;;;78.93;31.58;;;4.40;99.90;;;;;;5057258;28;20529;-60
2022/01/19 09:13:45;;;;;;;87.32;30.80;;;4.40;99.90;;;;;;5069576;28;20059;-60
2022/01/19 09:16:10;;;;;;;82.95;32.10;;;4.50;99.90;;;;;;5059349;28;20023;-60
2022/01/19 09:18:36;;;;;;;82.40;31.33;;;4.50;99.90;;;;;;5063185;28;20029;-59
2022/01/19 09:21:02;;;;;;;81.53;33.40;;;4.50;99.90;;;;;;5060039;28;20162;-61
2022/01/19 09:23:27;;;;;;;72.00;30.70;;;4.50;99.90;;;;;;5065592;28;20520;-62
2022/01/19 09:25:53;;;;;;;78.82;31.90;;;4.50;99.90;;;;;;5064804;28;20022;-60
2022/01/19 09:28:18;;;;;;;77.63;29.65;;;4.50;99.90;;;;;;5066446;28;20519;-60
2022/01/19 09:30:45;;;;;;;75.28;31.48;;;4.50;99.90;;;;;;5063849;28;20408;-57
2022/01/19 09:33:19;;;;;;;70.15;31.35;;;4.50;99.90;;;;;;5064403;28;20037;-60
2022/01/19 09:38:29;;;;;;;83.47;34.30;;;4.60;99.90;;;;;;5057534;28;20039;-59
2022/01/19 09:40:55;;;;;;;;;;;4.60;99.90;;;;;;5064180;28;20028;-59
2022/01/19 09:43:22;;;;;;;84.80;34.10;;;4.60;99.90;;;;;;5065496;28;19916;-60
2022/01/19 09:45:52;;;;;;;94.65;35.63;;;4.60;99.90;;;;;;5038615;28;20025;-60
2022/01/19 09:48:18;;;;;;;75.75;33.38;;;4.70;99.90;;;;;;5056806;28;20017;-60
2022/01/19 09:50:44;;;;;;;74.15;32.88;;;4.70;99.90;;;;;;5066664;28;20367;-59
2022/01/19 09:53:09;;;;;;;74.45;33.25;;;4.70;99.90;;;;;;5049560;28;20108;-60
2022/01/19 09:55:38;;;;;;;67.47;33.17;;;4.70;99.90;;;;;;5061988;28;20532;-60
2022/01/19 09:58:04;;;;;;;61.47;31.48;;;4.70;99.90;;;;;;5075074;28;20435;-60
2022/01/19 10:00:29;;;;;;;63.42;30.50;;;4.70;99.90;;;;;;5071206;28;20029;-61
2022/01/19 10:03:17;;;;;;;67.25;32.53;;;4.80;99.90;;;;;;5065547;28;20461;-59
2022/01/19 10:06:08;;;;;;;65.80;32.92;;;4.80;99.90;;;;;;5076518;28;20028;-59
2022/01/19 10:08:42;;;;;;;61.92;31.67;;;4.80;99.90;;;;;;5062413;28;20028;-59
2022/01/19 10:11:15;;;;;;;67.07;32.28;;;4.80;99.90;;;;;;5065499;28;20025;-58
2022/01/19 10:19:21;;;;;;;72.57;34.13;;;4.90;99.90;;;;;;5056963;28;20036;-58
2022/01/19 10:21:56;;;;;;;;;;;4.90;99.90;;;;;;5060464;28;20037;-60
2022/01/19 10:24:41;;;;;;;66.43;31.48;;;4.80;99.90;;;;;;5056622;28;19908;-60
2022/01/19 10:27:38;;;;;;;67.55;30.48;;;4.80;99.90;;;;;;5056844;28;20032;-59
2022/01/19 10:30:03;;;;;;;71.15;32.40;;;4.90;99.90;;;;;;5056603;28;20017;-59
2022/01/19 10:32:32;;;;;;;67.15;33.00;;;4.80;99.90;;;;;;5056295;28;20512;-56
2022/01/19 10:35:32;;;;;;;72.10;33.45;;;4.90;99.90;;;;;;5056434;28;20075;-59
2022/01/19 10:38:18;;;;;;;69.75;33.17;;;4.80;99.90;;;;;;5056219;28;20453;-58
2022/01/19 10:41:04;;;;;;;78.30;34.80;;;4.90;99.90;;;;;;5056615;28;20033;-60
2022/01/19 10:43:41;;;;;;;76.68;34.17;;;5.00;99.90;;;;;;5055874;28;20410;-60
2022/01/19 10:46:16;;;;;;;76.30;35.60;;;5.00;99.90;;;;;;5056240;28;20013;-59
2022/01/19 10:48:43;;;;;;;83.40;35.85;;;5.00;99.90;;;;;;5056398;28;20021;-59
2022/01/19 10:51:12;;;;;;;69.85;34.42;;;5.00;99.90;;;;;;5068870;28;20039;-59
2022/01/19 10:53:40;;;;;;;70.82;34.75;;;5.00;99.90;;;;;;5075676;28;20036;-59
2022/01/19 10:56:06;;;;;;;78.55;35.13;;;5.10;99.90;;;;;;5075913;28;20035;-60
2022/01/19 10:58:52;;;;;;;83.13;36.38;;;5.10;99.90;;;;;;5075975;28;20025;-59
2022/01/19 11:01:37;;;;;;;78.50;36.08;;;5.10;99.90;;;;;;5075719;28;20043;-60
2022/01/19 11:04:19;;;;;;;79.15;36.40;;;5.20;99.90;;;;;;5075351;28;20031;-60
2022/01/19 11:06:49;;;;;;;77.28;36.65;;;5.10;99.90;;;;;;5075743;28;20036;-60
2022/01/19 11:09:15;;;;;;;75.30;35.72;;;5.10;99.90;;;;;;5075602;28;20021;-60
2022/01/19 11:11:44;;;;;;;87.95;36.78;;;5.20;99.90;;;;;;5075276;28;20024;-61
2022/01/19 11:14:13;;;;;;;75.07;35.58;;;5.20;99.90;;;;;;5071994;28;20497;-60
2022/01/19 11:16:40;;;;;;;77.70;36.67;;;5.20;99.90;;;;;;5057585;28;20166;-60
2022/01/19 11:19:05;;;;;;;73.47;33.30;;;5.10;99.90;;;;;;5075588;28;20031;-60
2022/01/19 11:21:40;;;;;;;70.18;33.55;;;5.20;99.90;;;;;;5103925;22;20408;-63
2022/01/19 11:24:32;;;;;;;70.03;31.60;;;5.10;99.90;;;;;;5096245;28;20024;-62
2022/01/19 11:26:59;;;;;;;71.22;31.17;;;5.20;99.90;;;;;;5058208;28;20033;-64
2022/01/19 11:29:25;;;;;;;68.68;30.60;;;5.20;99.90;;;;;;5095770;28;20107;-61
2022/01/19 11:31:54;;;;;;;65.00;28.27;;;5.20;99.90;;;;;;5095613;28;20016;-60
2022/01/19 11:34:48;;;;;;;61.10;29.42;;;5.20;99.90;;;;;;5095448;28;20445;-62
2022/01/19 11:37:35;;;;;;;61.70;27.67;;;5.20;99.90;;;;;;5095665;28;20031;-63
2022/01/19 11:40:03;;;;;;;67.07;29.13;;;5.20;99.90;;;;;;5094880;28;20040;-61
2022/01/19 11:42:29;;;;;;;71.28;28.83;;;5.10;99.90;;;;;;5095633;28;20024;-62
2022/01/19 11:44:55;;;;;;;71.95;29.75;;;5.10;99.90;;;;;;5095512;28;20103;-63
2022/01/19 11:47:24;;;;;;;64.88;29.58;;;5.20;99.90;;;;;;5095379;28;20054;-63
2022/01/19 11:50:15;;;;;;;66.50;28.30;;;5.20;99.90;;;;;;5095407;28;20097;-62
2022/01/19 11:52:43;;;;;;;69.93;29.43;;;5.20;99.90;;;;;;5096010;28;20036;-62
2022/01/19 11:55:26;;;;;;;71.85;31.05;;;5.20;99.90;;;;;;5096152;28;20020;-63
2022/01/19 11:58:13;;;;;;;63.22;28.10;;;5.30;99.90;;;;;;5077212;28;20393;-63
2022/01/19 12:00:40;;;;;;;62.75;27.67;;;5.30;99.90;;;;;;5095099;28;20071;-64
2022/01/19 12:03:26;;;;;;;68.25;28.95;;;5.30;99.90;;;;;;5094846;28;20032;-64
2022/01/19 12:05:54;;;;;;;65.75;28.25;;;5.30;99.90;;;;;;5076343;28;20020;-63
2022/01/19 12:08:22;;;;;;;65.43;28.45;;;5.30;99.90;;;;;;5095818;28;20031;-63
2022/01/19 12:10:51;;;;;;;71.32;29.13;;;5.30;99.90;;;;;;5095168;28;20111;-62
2022/01/19 12:16:24;;;;;;;63.63;28.92;;;5.30;99.90;;;;;;5094751;28;20099;-62
2022/01/19 12:18:55;;;;;;;64.68;27.55;;;5.40;99.90;;;;;;5095553;28;20070;-60
2022/01/19 12:21:20;;;;;;;65.20;30.42;;;5.40;99.90;;;;;;5095074;28;20114;-59
2022/01/19 12:23:47;;;;;;;67.88;30.10;;;5.40;99.90;;;;;;5094270;28;20437;-61
2022/01/19 12:26:13;;;;;;;62.33;28.15;;;5.50;99.90;;;;;;5094633;28;20034;-60
2022/01/19 12:28:51;;;;;;;72.43;30.95;;;5.50;99.90;;;;;;5076350;28;20028;-59
2022/01/19 12:31:26;;;;;;;63.97;29.38;;;5.60;99.90;;;;;;5094251;28;20016;-62
2022/01/19 12:34:07;;;;;;;66.15;30.40;;;5.60;99.90;;;;;;5094879;28;20028;-61
2022/01/19 12:36:47;;;;;;;;;;;5.60;99.90;;;;;;5095138;28;20020;-60
2022/01/19 12:39:24;;;;;;;71.15;29.27;;;5.60;99.90;;;;;;5094155;28;20262;-59
2022/01/19 12:42:02;;;;;;;71.78;31.80;;;5.60;99.90;;;;;;5094275;28;20032;-60
2022/01/19 12:45:13;;;;;;;71.70;31.52;;;5.60;99.90;;;;;;5076733;28;20111;-60
2022/01/19 12:47:42;;;;;;;65.10;31.95;;;5.60;99.90;;;;;;4996412;28;20026;-61
2022/01/19 12:50:08;;;;;;;73.68;32.78;;;5.60;99.90;;;;;;5085027;28;20058;-61
2022/01/19 12:52:41;;;;;;;76.25;34.90;;;5.60;99.90;;;;;;5093992;28;20028;-61
2022/01/19 12:55:17;;;;;;;77.03;33.78;;;5.60;99.90;;;;;;5093794;28;20452;-63
2022/01/19 12:57:43;;;;;;;74.22;33.33;;;5.60;99.90;;;;;;5090806;28;20039;-62
2022/01/19 13:00:13;;;;;;;79.65;34.95;;;5.60;99.90;;;;;;5093935;28;20477;-60
2022/01/19 13:02:39;;;;;;;78.10;34.20;;;5.60;99.90;;;;;;5093795;28;20028;-62
2022/01/19 13:05:10;;;;;;;70.68;33.47;;;5.60;99.90;;;;;;5093895;28;20032;-63
2022/01/19 13:07:42;;;;;;;79.88;36.42;;;5.60;99.90;;;;;;5093983;28;20024;-63
2022/01/19 13:10:19;;;;;;;87.38;36.63;;;5.60;99.90;;;;;;5093574;28;20031;-63
2022/01/19 13:13:13;;;;;;;81.07;35.25;;;5.60;99.90;;;;;;5094634;28;20031;-60
2022/01/19 13:15:52;;;;;;;75.97;34.92;;;5.60;99.90;;;;;;5093804;28;20038;-60
2022/01/19 13:18:37;;;;;;;76.80;35.05;;;5.60;99.90;;;;;;5094494;28;20141;-62
2022/01/19 13:21:07;;;;;;;71.88;34.63;;;5.60;99.90;;;;;;5094342;28;20028;-62
2022/01/19 13:23:37;;;;;;;83.10;36.17;;;5.60;99.90;;;;;;5094334;28;20035;-63
2022/01/19 13:26:05;;;;;;;86.65;36.67;;;5.60;99.90;;;;;;5097117;28;20468;-65
2022/01/19 13:28:34;;;;;;;78.93;36.35;;;5.60;99.90;;;;;;5101485;28;20035;-62
2022/01/19 13:31:20;;;;;;;85.22;37.67;;;5.60;99.90;;;;;;5102230;28;20020;-60
2022/01/19 13:34:12;;;;;;;79.97;36.45;;;5.60;99.90;;;;;;5060407;28;20083;-61
2022/01/19 13:36:37;;;;;;;86.95;38.40;;;5.60;99.90;;;;;;5074546;28;20445;-62
2022/01/19 13:39:04;;;;;;;86.68;36.58;;;5.50;99.90;;;;;;5079751;28;20067;-61
2022/01/19 13:41:31;;;;;;;81.65;37.50;;;5.50;99.90;;;;;;5080147;28;20029;-59
2022/01/19 13:44:08;;;;;;;95.15;39.42;;;5.50;99.90;;;;;;5078820;28;20028;-59
2022/01/19 13:46:38;;;;;;;97.97;37.08;;;5.50;99.90;;;;;;5074403;28;20032;-59
2022/01/19 13:49:05;;;;;;;90.57;37.70;;;5.50;99.90;;;;;;5073350;28;20428;-60
2022/01/19 13:51:32;;;;;;;91.55;37.42;;;5.50;99.90;;;;;;5073295;28;20025;-59
2022/01/19 13:54:04;;;;;;;94.53;40.15;;;5.50;99.90;;;;;;5055104;28;20059;-60
2022/01/19 13:56:33;;;;;;;94.78;40.10;;;5.50;99.90;;;;;;5073464;28;20029;-58
2022/01/19 13:59:05;;;;;;;95.78;38.38;;;5.50;99.90;;;;;;5073418;28;20024;-60
2022/01/19 14:02:00;;;;;;;87.80;38.80;;;5.50;99.90;;;;;;5073539;28;20525;-61
2022/01/19 14:04:32;;;;;;;97.25;41.22;;;5.50;99.90;;;;;;5073241;28;20603;-62
2022/01/19 14:07:06;;;;;;;99.50;38.97;;;5.50;99.90;;;;;;5073695;28;20032;-63
2022/01/19 14:09:34;;;;;;;90.75;38.08;;;5.50;99.90;;;;;;5073306;28;20534;-60